Time;durP1;ratioP1;P1;durP2;ratioP2;P2;SDS_P1;SDS_P2;PMS_P1;PMS_P2;Temp;Humidity;BMP_temperature;BMP_pressure;BME280_temperature;BME280_humidity;BME280_pressure;Samples;Min_cycle;Max_cycle;Signal;HPM_P1;HPM_P2
2022/03/07 00:00:55;;;;;;;26.50;12.60;;;;;;;2.25;46.39;100680.53;5394044;32;36280;-72
2022/03/07 00:03:57;;;;;;;29.03;12.77;;;;;;;2.09;46.68;100676.22;5371386;32;34568;-74
2022/03/07 00:06:59;;;;;;;27.40;12.70;;;;;;;2.35;45.92;100674.47;5373158;32;34323;-68
2022/03/07 00:10:02;;;;;;;24.93;12.90;;;;;;;2.38;45.61;100674.50;5385653;32;34643;-66
2022/03/07 00:13:04;;;;;;;27.07;12.77;;;;;;;3.37;43.21;100685.44;5358553;32;34421;-67
2022/03/07 00:16:07;;;;;;;24.77;12.67;;;;;;;3.17;43.79;100678.59;5388338;32;35376;-68
2022/03/07 00:19:09;;;;;;;25.53;12.10;;;;;;;3.63;42.63;100675.75;5361128;32;34617;-72
2022/03/07 00:22:12;;;;;;;25.93;12.83;;;;;;;2.84;43.73;100677.00;5370648;32;35016;-74
2022/03/07 00:25:16;;;;;;;23.57;12.20;;;;;;;2.64;44.45;100677.03;5386771;32;34915;-67
2022/03/07 00:28:18;;;;;;;26.43;13.23;;;;;;;2.43;45.63;100683.12;5360206;32;34952;-67
2022/03/07 00:31:21;;;;;;;27.27;13.57;;;;;;;2.15;45.91;100687.47;5382465;32;34629;-72
2022/03/07 00:34:23;;;;;;;29.53;13.43;;;;;;;1.93;46.62;100684.84;5382585;32;33772;-72
2022/03/07 00:37:26;;;;;;;27.47;12.63;;;;;;;2.84;44.29;100687.38;5383872;32;34695;-68
2022/03/07 00:40:28;;;;;;;25.67;11.93;;;;;;;2.62;44.67;100686.53;5364788;32;34491;-68
2022/03/07 00:43:31;;;;;;;27.00;12.23;;;;;;;2.85;44.24;100689.09;5360425;32;34268;-74
2022/03/07 00:46:33;;;;;;;27.50;13.30;;;;;;;2.41;45.28;100699.56;5389629;32;34862;-73
2022/03/07 00:49:35;;;;;;;24.57;12.07;;;;;;;2.96;44.46;100702.03;5381256;32;34984;-72
2022/03/07 00:52:37;;;;;;;25.43;11.93;;;;;;;2.50;45.24;100703.88;5397201;32;34070;-68
2022/03/07 00:55:40;;;;;;;22.87;11.83;;;;;;;2.55;44.58;100700.41;5366365;32;34480;-67
2022/03/07 00:58:42;;;;;;;24.67;12.23;;;;;;;2.26;46.12;100694.37;5366868;32;44515;-72
2022/03/07 01:01:47;;;;;;;30.03;12.33;;;;;;;3.30;43.39;100695.00;5361075;32;33100;-72
2022/03/07 01:04:50;;;;;;;25.00;12.57;;;;;;;2.33;45.48;100684.00;5378020;32;35004;-67
2022/03/07 01:07:52;;;;;;;26.20;13.23;;;;;;;2.30;46.12;100702.16;5369459;32;35284;-68
2022/03/07 01:10:55;;;;;;;28.17;13.67;;;;;;;1.75;47.29;100701.25;5367322;32;35983;-73
2022/03/07 01:13:57;;;;;;;24.93;12.30;;;;;;;1.86;47.57;100697.81;5364647;32;34805;-72
2022/03/07 01:16:59;;;;;;;24.60;12.97;;;;;;;1.79;47.37;100697.78;5373167;32;34749;-68
2022/03/07 01:20:04;;;;;;;24.40;12.23;;;;;;;2.26;46.45;100694.37;5389448;32;34579;-68
2022/03/07 01:23:06;;;;;;;25.30;12.67;;;;;;;2.22;46.38;100684.87;5382943;32;35020;-74
2022/03/07 01:26:08;;;;;;;27.10;12.63;;;;;;;2.30;46.52;100694.37;5374198;32;34699;-73
2022/03/07 01:29:11;;;;;;;26.53;12.07;;;;;;;2.48;45.67;100690.91;5384475;32;44708;-67
2022/03/07 01:32:13;;;;;;;27.20;12.93;;;;;;;2.83;44.34;100677.84;5380912;32;35327;-68
2022/03/07 01:35:15;;;;;;;25.77;12.83;;;;;;;2.61;45.35;100678.78;5380076;32;35176;-68
2022/03/07 01:38:17;;;;;;;26.37;13.13;;;;;;;2.17;45.79;100684.87;5370345;32;34339;-75
2022/03/07 01:41:20;;;;;;;29.00;13.57;;;;;;;2.21;46.46;100689.19;5347291;32;34895;-68
2022/03/07 01:44:24;;;;;;;27.73;14.47;;;;;;;2.92;44.70;100688.22;5381436;32;35641;-67
2022/03/07 01:47:32;;;;;;;26.90;13.30;;;;;;;3.11;43.90;100678.63;5391934;32;34342;-74
2022/03/07 01:50:34;;;;;;;24.03;12.30;;;;;;;2.70;44.87;100687.41;5378159;32;34529;-68
2022/03/07 01:53:37;;;;;;;26.67;13.30;;;;;;;2.24;46.25;100683.12;5369617;32;35017;-73
2022/03/07 01:56:46;;;;;;;24.10;13.13;;;;;;;1.77;47.49;100692.62;5374367;32;35356;-72
2022/03/07 01:59:49;;;;;;;26.33;12.97;;;;;;;2.51;45.83;100675.31;5350619;32;36506;-68
2022/03/07 02:02:51;;;;;;;26.83;12.77;;;;;;;2.26;46.59;100678.84;5379856;32;34716;-68
2022/03/07 02:05:54;;;;;;;25.47;13.20;;;;;;;1.75;47.64;100690.91;5368735;32;34609;-73
2022/03/07 02:08:57;;;;;;;26.50;12.47;;;;;;;2.08;47.03;100692.66;5366417;32;34469;-72
2022/03/07 02:11:59;;;;;;;25.60;13.17;;;;;;;2.23;46.60;100689.19;5356528;32;34718;-68
2022/03/07 02:15:03;;;;;;;28.73;12.97;;;;;;;2.47;46.01;100684.00;5378879;32;34897;-72
2022/03/07 02:18:05;;;;;;;26.95;14.32;;;;;;;1.90;47.20;100698.69;5383893;32;34190;-73
2022/03/07 02:21:14;;;;;;;27.87;13.50;;;;;;;1.92;47.61;100683.97;5381037;32;33418;-68
2022/03/07 02:24:17;;;;;;;27.73;12.47;;;;;;;1.96;47.23;100693.50;5377712;32;35064;-73
2022/03/07 02:27:19;;;;;;;27.10;13.20;;;;;;;2.42;46.39;100680.53;5377802;32;34630;-68
2022/03/07 02:30:22;;;;;;;26.33;13.87;;;;;;;1.70;48.09;100679.66;5357135;32;35698;-68
2022/03/07 02:33:24;;;;;;;27.70;13.70;;;;;;;1.08;49.94;100679.47;5380767;32;35104;-73
2022/03/07 02:36:26;;;;;;;27.00;13.17;;;;;;;1.81;47.65;100684.00;5360189;32;35725;-74
2022/03/07 02:39:28;;;;;;;28.10;14.03;;;;;;;1.71;47.86;100679.66;5375347;32;35515;-73
2022/03/07 02:42:31;;;;;;;25.20;13.23;;;;;;;1.12;49.52;100682.06;5369409;32;35226;-72
2022/03/07 02:45:33;;;;;;;26.27;12.33;;;;;;;1.66;48.17;100680.50;5365590;32;33243;-68
2022/03/07 02:48:35;;;;;;;24.90;13.53;;;;;;;1.30;48.62;100677.84;5360557;32;34557;-67
2022/03/07 02:51:37;;;;;;;26.53;12.47;;;;;;;2.12;46.39;100674.47;5380059;32;34052;-67
2022/03/07 02:54:39;;;;;;;25.93;12.80;;;;;;;1.49;48.31;100678.75;5391644;32;34710;-67
2022/03/07 02:57:42;;;;;;;28.70;13.07;;;;;;;1.56;48.01;100692.59;5375120;32;34410;-72
2022/03/07 03:00:44;;;;;;;25.80;12.63;;;;;;;1.78;47.33;100694.34;5395025;32;34689;-72
2022/03/07 03:03:47;;;;;;;27.77;13.23;;;;;;;2.25;46.14;100682.25;5384294;32;34766;-67
2022/03/07 03:06:49;;;;;;;29.30;13.60;;;;;;;2.45;45.72;100685.72;5382920;32;34930;-68
2022/03/07 03:09:52;;;;;;;25.03;13.90;;;;;;;2.51;45.66;100683.09;5356514;32;34989;-73
2022/03/07 03:12:54;;;;;;;26.60;13.03;;;;;;;1.82;47.29;100692.62;5372766;32;35315;-68
2022/03/07 03:15:56;;;;;;;24.70;12.83;;;;;;;1.94;47.24;100690.06;5354133;32;35076;-74
2022/03/07 03:18:58;;;;;;;24.23;12.87;;;;;;;2.63;45.94;100684.81;5375955;32;36606;-70
2022/03/07 03:22:00;;;;;;;28.40;13.20;;;;;;;2.49;45.98;100689.16;5383633;32;33860;-71
2022/03/07 03:25:03;;;;;;;26.17;13.30;;;;;;;1.95;47.12;100702.16;5385601;32;34142;-72
2022/03/07 03:28:06;;;;;;;24.23;13.20;;;;;;;2.10;46.64;100704.75;5376626;32;34396;-75
2022/03/07 03:31:11;;;;;;;24.57;12.27;;;;;;;2.13;46.24;100694.37;5392242;32;35228;-68
2022/03/07 03:34:13;;;;;;;25.73;13.07;;;;;;;2.53;45.98;100689.16;5344669;32;44045;-73
2022/03/07 03:37:15;;;;;;;29.73;12.73;;;;;;;3.18;44.02;100695.91;5371229;32;34707;-72
2022/03/07 03:40:18;;;;;;;25.00;13.10;;;;;;;2.37;45.15;100705.59;5365135;32;35071;-74
2022/03/07 03:43:21;;;;;;;23.37;12.70;;;;;;;1.33;48.37;100705.44;5373720;32;34786;-75
2022/03/07 03:46:24;;;;;;;27.17;13.13;;;;;;;2.64;45.34;100703.00;5372972;32;34611;-68
2022/03/07 03:49:26;;;;;;;24.70;12.53;;;;;;;1.80;47.81;100704.69;5373358;32;35630;-68
2022/03/07 03:52:28;;;;;;;29.60;13.60;;;;;;;1.66;47.92;100711.59;5389862;32;34908;-68
2022/03/07 03:55:30;;;;;;;30.67;13.80;;;;;;;1.56;48.37;100721.94;5385363;32;33406;-67
2022/03/07 03:58:32;;;;;;;29.27;13.63;;;;;;;1.01;50.15;100721.72;5367032;32;34009;-67
2022/03/07 04:01:35;;;;;;;30.90;13.73;;;;;;;1.19;49.50;100715.75;5374054;32;34994;-67
2022/03/07 04:04:40;;;;;;;29.07;13.03;;;;;;;1.51;48.83;100702.06;5406348;32;44375;-71
2022/03/07 04:07:43;;;;;;;27.73;13.63;;;;;;;2.29;46.79;100715.97;5343677;32;34812;-72
2022/03/07 04:10:46;;;;;;;29.87;12.85;;;;;;;2.20;45.78;100709.94;5380872;32;34798;-73
2022/03/07 04:13:48;;;;;;;28.13;13.30;;;;;;;1.58;46.87;100716.75;5353507;32;35841;-67
2022/03/07 04:16:51;;;;;;;31.33;14.10;;;;;;;1.78;46.64;100715.06;5352991;32;35619;-73
2022/03/07 04:19:53;;;;;;;47.77;15.93;;;;;;;1.18;48.58;100720.94;5389389;32;35729;-68
2022/03/07 04:22:55;;;;;;;25.27;12.67;;;;;;;0.85;50.32;100711.28;5359213;32;34533;-72
2022/03/07 04:25:58;;;;;;;30.40;14.07;;;;;;;1.84;48.13;100714.22;5389975;32;34574;-68
2022/03/07 04:29:07;;;;;;;30.77;14.13;;;;;;;1.73;47.68;100714.19;5351023;32;34806;-67
2022/03/07 04:32:09;;;;;;;30.33;14.23;;;;;;;1.80;47.96;100717.66;5371984;32;37804;-68
2022/03/07 04:35:12;;;;;;;28.87;14.13;;;;;;;1.16;49.20;100712.28;5369217;32;34441;-68
2022/03/07 04:38:15;;;;;;;29.97;14.97;;;;;;;0.80;50.19;100719.00;5357451;32;36684;-73
2022/03/07 04:41:17;;;;;;;32.87;15.43;;;;;;;0.89;50.43;100718.19;5373891;32;35007;-73
2022/03/07 04:44:19;;;;;;;31.57;14.43;;;;;;;0.65;50.70;100716.34;5357003;32;34427;-68
2022/03/07 04:47:21;;;;;;;28.30;14.17;;;;;;;1.62;48.63;100716.78;5394617;32;33914;-73
2022/03/07 04:50:24;;;;;;;37.17;15.27;;;;;;;1.46;48.17;100724.50;5371339;32;35306;-68
2022/03/07 04:53:26;;;;;;;29.10;14.23;;;;;;;1.34;48.65;100709.75;5382617;32;35088;-73
2022/03/07 04:56:28;;;;;;;29.60;13.37;;;;;;;0.82;50.22;100702.63;5376285;32;33824;-68
2022/03/07 04:59:30;;;;;;;30.57;14.57;;;;;;;0.79;50.98;100717.28;5376858;32;34859;-72
2022/03/07 05:02:32;;;;;;;29.87;14.07;;;;;;;1.55;48.43;100711.59;5369574;32;34058;-73
2022/03/07 05:05:35;;;;;;;36.50;16.13;;;;;;;0.61;50.67;100722.34;5381952;32;34627;-68
2022/03/07 05:08:38;;;;;;;30.57;14.57;;;;;;;0.96;50.06;100712.19;5374261;32;34328;-67
2022/03/07 05:11:40;;;;;;;36.17;15.23;;;;;;;0.76;50.79;100702.59;5381805;32;44492;-71
2022/03/07 05:14:42;;;;;;;31.13;14.73;;;;;;;0.65;51.33;100712.03;5363627;32;35972;-67
2022/03/07 05:17:48;;;;;;;34.73;15.97;;;;;;;1.18;49.59;100708.84;5391802;32;34170;-72
2022/03/07 05:20:50;;;;;;;38.17;16.07;;;;;;;1.21;49.53;100715.75;5369784;32;35226;-67
2022/03/07 05:23:59;;;;;;;32.60;14.27;;;;;;;1.57;49.28;100715.91;5368268;32;34208;-68
2022/03/07 05:27:01;;;;;;;36.90;15.50;;;;;;;2.12;47.09;100705.59;5376580;32;35517;-72
2022/03/07 05:30:04;;;;;;;34.57;16.13;;;;;;;0.85;50.46;100709.56;5385313;32;36301;-67
2022/03/07 05:33:06;;;;;;;32.90;15.20;;;;;;;1.75;48.33;100709.91;5364132;32;35240;-72
2022/03/07 05:36:08;;;;;;;39.17;17.43;;;;;;;1.27;49.67;100715.78;5370369;32;33363;-68
2022/03/07 05:39:10;;;;;;;32.20;16.47;;;;;;;1.04;50.64;100720.88;5363572;32;47352;-73
2022/03/07 05:42:13;;;;;;;31.20;15.70;;;;;;;0.85;50.92;100719.91;5362004;32;34307;-73
2022/03/07 05:45:15;;;;;;;31.70;16.07;;;;;;;0.57;52.00;100723.16;5380293;32;33982;-68
2022/03/07 05:48:17;;;;;;;35.60;14.93;;;;;;;0.54;52.14;100724.87;5384412;32;34267;-72
2022/03/07 05:51:23;;;;;;;32.20;16.10;;;;;;;0.88;51.37;100714.72;5388057;32;34667;-68
2022/03/07 05:54:26;;;;;;;43.50;15.87;;;;;;;0.77;51.72;100724.16;5367045;32;34692;-67
2022/03/07 05:57:28;;;;;;;41.27;17.80;;;;;;;0.96;51.79;100723.41;5373675;32;35497;-74
2022/03/07 06:00:30;;;;;;;35.03;16.43;;;;;;;1.09;50.95;100724.31;5392919;32;35194;-71
2022/03/07 06:03:33;;;;;;;39.43;16.80;;;;;;;1.30;50.20;100718.41;5371959;32;35361;-73
2022/03/07 06:06:35;;;;;;;33.70;16.13;;;;;;;1.53;49.69;100716.72;5359972;32;34502;-68
2022/03/07 06:09:37;;;;;;;38.07;16.30;;;;;;;1.98;48.21;100716.84;5380936;32;34838;-67
2022/03/07 06:12:39;;;;;;;33.93;15.80;;;;;;;1.46;49.94;100725.34;5381599;32;36437;-71
2022/03/07 06:15:43;;;;;;;43.87;16.70;;;;;;;1.46;49.92;100730.53;5376781;32;34732;-73
2022/03/07 06:18:46;;;;;;;32.63;16.77;;;;;;;2.11;48.28;100727.22;5361231;32;35156;-68
2022/03/07 06:21:48;;;;;;;37.67;16.67;;;;;;;2.79;46.52;100728.06;5397551;32;34822;-68
2022/03/07 06:24:50;;;;;;;31.87;16.53;;;;;;;2.35;47.18;100730.69;5379769;32;34599;-69
2022/03/07 06:27:53;;;;;;;36.17;16.87;;;;;;;2.19;47.88;100735.03;5377202;32;35253;-68
2022/03/07 06:30:55;;;;;;;34.10;17.07;;;;;;;1.62;49.32;100742.69;5391310;32;35451;-72
2022/03/07 06:33:57;;;;;;;35.03;17.63;;;;;;;2.38;47.15;100741.06;5385877;32;34713;-68
2022/03/07 06:37:00;;;;;;;39.07;16.30;;;;;;;3.02;45.90;100725.37;5391589;32;34916;-65
2022/03/07 06:40:04;;;;;;;34.53;16.93;;;;;;;1.52;49.53;100743.50;5353519;32;36039;-69
2022/03/07 06:43:06;;;;;;;40.83;17.03;;;;;;;2.16;47.45;100741.06;5380639;32;34468;-61
2022/03/07 06:46:08;;;;;;;33.17;16.17;;;;;;;2.48;46.52;100741.94;5370493;32;33852;-63
2022/03/07 06:49:11;;;;;;;30.90;15.97;;;;;;;1.95;48.18;100746.22;5389772;32;44261;-64
2022/03/07 06:52:13;;;;;;;36.47;17.70;;;;;;;2.16;47.67;100748.81;5380927;32;35000;-70
2022/03/07 06:55:15;;;;;;;37.40;17.30;;;;;;;2.55;47.25;100747.09;5380729;32;35546;-64
2022/03/07 06:58:18;;;;;;;36.23;15.77;;;;;;;2.72;46.52;100740.19;5388799;32;33992;-70
2022/03/07 07:01:20;;;;;;;39.40;17.77;;;;;;;2.78;46.45;100754.03;5363220;32;38452;-84
2022/03/07 07:04:23;;;;;;;30.77;15.93;;;;;;;1.65;48.73;100757.38;5389913;32;35541;-73
2022/03/07 07:07:25;;;;;;;34.17;16.83;;;;;;;2.11;47.94;100755.72;5378433;32;33139;-72
2022/03/07 07:10:27;;;;;;;39.77;17.70;;;;;;;1.70;48.64;100752.22;5390291;32;34111;-73
2022/03/07 07:13:30;;;;;;;37.07;16.20;;;;;;;1.65;48.52;100748.72;5383579;32;34209;-65
2022/03/07 07:16:32;;;;;;;35.87;17.27;;;;;;;2.18;47.35;100757.47;5386685;32;35038;-66
2022/03/07 07:19:35;;;;;;;38.13;18.73;;;;;;;3.00;44.90;100747.91;5392245;32;33997;-68
2022/03/07 07:22:38;;;;;;;34.47;16.17;;;;;;;2.62;45.28;100751.41;5354759;32;35440;-64
2022/03/07 07:25:43;;;;;;;33.07;15.63;;;;;;;3.63;44.05;100742.47;5401201;32;44486;-64
2022/03/07 07:28:48;;;;;;;33.27;16.17;;;;;;;3.29;44.31;100752.16;5388882;32;37281;-64
2022/03/07 07:31:52;;;;;;;38.70;18.50;;;;;;;2.86;45.50;100742.75;5394450;32;34702;-66
2022/03/07 07:34:54;;;;;;;36.50;17.00;;;;;;;3.89;42.84;100747.53;5382509;32;35225;-63
2022/03/07 07:37:57;;;;;;;32.73;16.37;;;;;;;4.66;41.03;100759.09;5366016;32;35537;-67
2022/03/07 07:40:59;;;;;;;34.43;17.80;;;;;;;4.20;41.45;100763.81;5375806;32;35298;-62
2022/03/07 07:44:02;;;;;;;35.77;16.93;;;;;;;2.21;46.54;100776.50;5386316;32;34096;-71
2022/03/07 07:47:07;;;;;;;41.55;18.10;;;;;;;2.67;46.07;100769.59;5397584;32;33862;-69
2022/03/07 07:50:10;;;;;;;31.67;15.83;;;;;;;3.87;42.95;100767.50;5375889;32;44545;-65
2022/03/07 07:53:17;;;;;;;31.97;15.67;;;;;;;4.37;41.56;100766.25;5396076;32;34314;-64
2022/03/07 07:56:19;;;;;;;28.90;14.60;;;;;;;4.58;40.79;100761.78;5387221;32;35712;-66
2022/03/07 07:59:21;;;;;;;31.73;15.87;;;;;;;4.81;40.30;100768.50;5387214;32;34099;-68
2022/03/07 08:02:24;;;;;;;29.97;15.87;;;;;;;4.39;41.04;100782.75;5393777;32;34100;-68
2022/03/07 08:05:26;;;;;;;34.53;16.20;;;;;;;4.08;41.68;100798.56;5382876;32;33442;-65
2022/03/07 08:08:29;;;;;;;29.47;13.40;;;;;;;4.31;41.06;100803.59;5391767;32;34517;-65
2022/03/07 08:11:33;;;;;;;33.37;15.43;;;;;;;4.05;41.41;100812.44;5379208;32;35110;-63
2022/03/07 08:14:37;;;;;;;36.27;16.00;;;;;;;3.29;43.19;100804.97;5373681;32;33603;-63
2022/03/07 08:17:46;;;;;;;30.35;15.00;;;;;;;2.16;46.13;100813.66;5373885;32;34240;-69
2022/03/07 08:20:49;;;;;;;32.40;15.10;;;;;;;3.76;42.58;100802.19;5386837;32;44782;-69
2022/03/07 08:23:55;;;;;;;32.92;16.62;;;;;;;3.62;42.89;100809.19;5384714;32;35232;-68
2022/03/07 08:26:58;;;;;;;32.00;15.57;;;;;;;2.37;45.37;100807.63;5373828;32;34121;-65
2022/03/07 08:30:02;;;;;;;37.47;15.83;;;;;;;2.84;45.14;100809.38;5383107;32;34049;-72
2022/03/07 08:33:04;;;;;;;68.60;18.80;;;;;;;2.81;44.84;100799.00;5364520;32;35178;-64
2022/03/07 08:36:06;;;;;;;34.97;16.27;;;;;;;3.22;44.60;100791.16;5382828;32;34048;-65
2022/03/07 08:39:09;;;;;;;32.63;15.87;;;;;;;3.66;43.47;100787.50;5393131;32;34055;-64
2022/03/07 08:42:11;;;;;;;32.07;16.27;;;;;;;4.93;41.02;100784.00;5372708;32;44696;-66
2022/03/07 08:45:14;;;;;;;28.97;15.40;;;;;;;5.56;38.61;100768.53;5398362;32;34580;-64
2022/03/07 08:48:17;;;;;;;28.33;14.90;;;;;;;5.32;39.34;100772.31;5370149;32;35598;-69
2022/03/07 08:51:19;;;;;;;34.30;14.30;;;;;;;5.08;39.46;100772.56;5393678;32;34105;-64
2022/03/07 08:54:21;;;;;;;25.90;13.70;;;;;;;4.85;39.75;100776.28;5366995;32;34172;-66
2022/03/07 08:57:24;;;;;;;30.47;14.63;;;;;;;5.22;39.09;100781.12;5386452;32;35218;-67
2022/03/07 09:00:27;;;;;;;27.92;14.45;;;;;;;3.83;42.33;100792.63;5388845;32;34722;-68
2022/03/07 09:03:29;;;;;;;32.97;16.90;;;;;;;4.50;41.14;100791.31;5383124;32;35382;-70
2022/03/07 09:06:32;;;;;;;28.80;15.70;;;;;;;4.32;41.22;100798.41;5392963;32;35352;-64
2022/03/07 09:09:34;;;;;;;29.53;15.20;;;;;;;4.67;39.87;100788.59;5378210;32;34301;-66
2022/03/07 09:12:37;;;;;;;30.43;16.30;;;;;;;4.38;41.16;100784.50;5372534;32;34573;-68
2022/03/07 09:15:42;;;;;;;40.03;16.07;;;;;;;5.43;38.76;100775.66;5373532;32;42096;-64
2022/03/07 09:18:44;;;;;;;30.70;14.97;;;;;;;4.79;39.14;100771.12;5390036;32;35354;-65
2022/03/07 09:21:47;;;;;;;28.83;15.30;;;;;;;4.80;39.90;100779.78;5395941;32;34087;-63
2022/03/07 09:24:49;;;;;;;27.97;14.73;;;;;;;4.26;40.47;100769.84;5388469;32;34412;-68
2022/03/07 09:27:51;;;;;;;35.17;16.37;;;;;;;4.75;40.37;100764.19;5393054;32;34220;-66
2022/03/07 09:30:56;;;;;;;28.80;14.97;;;;;;;3.96;41.46;100780.44;5389704;32;34143;-66
2022/03/07 09:33:58;;;;;;;29.37;15.47;;;;;;;4.98;39.62;100769.22;5377448;32;34143;-66
2022/03/07 09:37:01;;;;;;;30.67;15.77;;;;;;;4.82;39.65;100771.06;5391095;32;34598;-66
2022/03/07 09:40:04;;;;;;;32.47;16.57;;;;;;;5.10;39.04;100771.69;5364299;32;34124;-66
2022/03/07 09:43:07;;;;;;;31.10;14.27;;;;;;;5.38;39.01;100771.38;5389771;32;35845;-64
2022/03/07 09:46:10;;;;;;;32.60;15.77;;;;;;;6.19;36.97;100768.59;5387673;32;36106;-65
2022/03/07 09:49:12;;;;;;;28.40;14.75;;;;;;;5.52;37.65;100768.59;5381615;32;44858;-63
2022/03/07 09:52:15;;;;;;;55.20;19.33;;;;;;;6.17;36.43;100759.03;5394869;32;36009;-67
2022/03/07 09:55:18;;;;;;;30.73;16.53;;;;;;;5.32;38.54;100766.22;5376164;32;35667;-66
2022/03/07 09:58:20;;;;;;;30.42;15.70;;;;;;;5.26;39.07;100774.97;5391044;32;34095;-63
2022/03/07 10:01:22;;;;;;;30.30;15.07;;;;;;;5.13;38.63;100763.81;5385341;32;34111;-65
2022/03/07 10:04:32;;;;;;;29.77;15.40;;;;;;;4.94;39.48;100764.88;5393041;32;35361;-64
2022/03/07 10:07:45;;;;;;;31.07;15.73;;;;;;;4.85;39.29;100772.81;5361313;32;35324;-65
2022/03/07 10:10:50;;;;;;;30.40;14.13;;;;;;;4.73;40.20;100773.78;5388453;32;44574;-65
2022/03/07 10:13:57;;;;;;;33.53;15.37;;;;;;;5.55;38.87;100773.78;5390277;32;34315;-69
2022/03/07 10:17:03;;;;;;;31.80;13.63;;;;;;;5.61;38.52;100771.09;5382600;32;34013;-64
2022/03/07 10:20:06;;;;;;;24.03;12.67;;;;;;;5.29;39.07;100769.75;5379179;32;33028;-67
2022/03/07 10:23:11;;;;;;;26.97;12.77;;;;;;;4.84;39.54;100769.34;5384552;32;44463;-65
2022/03/07 10:26:15;;;;;;;26.90;12.13;;;;;;;5.05;38.32;100767.41;5391481;32;34008;-63
2022/03/07 10:29:18;;;;;;;26.27;12.23;;;;;;;5.40;37.67;100770.47;5384667;32;34171;-61
2022/03/07 10:32:36;;;;;;;25.20;12.27;;;;;;;4.75;38.99;100768.56;5381649;32;35256;-64
2022/03/07 10:35:49;;;;;;;23.33;12.40;;;;;;;4.40;40.00;100774.06;5390128;32;34305;-61
2022/03/07 10:38:55;;;;;;;28.42;13.32;;;;;;;5.02;38.07;100764.81;5388128;32;34219;-66
2022/03/07 10:41:58;;;;;;;25.87;13.60;;;;;;;4.37;40.06;100766.25;5373002;32;34295;-70
2022/03/07 10:45:05;;;;;;;27.70;12.47;;;;;;;3.74;40.76;100762.34;5384068;32;35394;-66
2022/03/07 10:48:08;;;;;;;50.73;15.77;;;;;;;4.58;39.14;100753.09;5398982;32;34054;-68
2022/03/07 10:51:16;;;;;;;25.07;12.70;;;;;;;3.98;40.45;100758.72;5390926;32;44308;-71
2022/03/07 10:54:19;;;;;;;25.83;14.37;;;;;;;3.92;41.03;100757.91;5401531;32;34113;-76
2022/03/07 10:57:24;;;;;;;28.33;14.87;;;;;;;4.20;40.44;100751.66;5393863;32;34756;-74
2022/03/07 11:00:27;;;;;;;25.83;13.33;;;;;;;4.53;39.91;100734.03;5380520;32;35423;-74
2022/03/07 11:03:31;;;;;;;30.65;13.98;;;;;;;4.07;40.80;100737.03;5393623;32;35024;-75
2022/03/07 11:06:34;;;;;;;28.73;13.57;;;;;;;4.10;40.38;100731.78;5386147;32;35296;-71
2022/03/07 11:09:37;;;;;;;29.50;14.27;;;;;;;3.77;41.63;100733.72;5359250;32;35531;-78
2022/03/07 11:12:41;;;;;;;33.03;14.87;;;;;;;4.63;39.97;100717.44;5397664;32;34313;-73
2022/03/07 11:15:44;;;;;;;30.50;14.80;;;;;;;4.15;40.74;100732.63;5376204;32;44702;-67
2022/03/07 11:18:54;;;;;;;27.00;14.00;;;;;;;3.37;42.48;100727.00;5394947;32;33998;-73
2022/03/07 11:22:04;;;;;;;27.57;13.83;;;;;;;3.20;42.53;100714.06;5386979;32;33878;-67
2022/03/07 11:25:08;;;;;;;27.17;12.73;;;;;;;4.06;40.85;100709.28;5395188;32;35702;-73
2022/03/07 11:28:10;;;;;;;28.40;13.53;;;;;;;3.89;41.26;100700.72;5381491;32;44406;-67
2022/03/07 11:31:23;;;;;;;27.67;13.73;;;;;;;4.06;41.21;100701.47;5373782;32;34191;-63
2022/03/07 11:34:25;;;;;;;25.17;13.00;;;;;;;4.09;41.08;100693.63;5384338;32;34155;-68
2022/03/07 11:37:30;;;;;;;26.53;13.37;;;;;;;4.42;40.27;100687.28;5387812;32;35740;-70
2022/03/07 11:40:32;;;;;;;26.40;11.37;;;;;;;3.52;41.43;100690.53;5366259;32;33903;-69
2022/03/07 11:43:48;;;;;;;23.87;12.60;;;;;;;5.06;38.48;100677.94;5385051;32;33902;-68
2022/03/07 11:46:51;;;;;;;24.93;12.23;;;;;;;4.16;40.20;100677.09;5385128;32;34216;-86
2022/03/07 11:50:00;;;;;;;25.60;13.20;;;;;;;3.45;41.20;100686.25;5398696;32;34132;-79
2022/03/07 11:53:03;;;;;;;23.13;11.43;;;;;;;4.43;39.44;100665.56;5363592;32;35753;-73
2022/03/07 11:56:15;;;;;;;25.60;12.57;;;;;;;5.10;37.95;100667.47;5365326;32;33992;-80
2022/03/07 11:59:28;;;;;;;26.87;12.70;;;;;;;5.18;37.80;100659.53;5363443;32;44443;-69
2022/03/07 12:02:48;;;;;;;28.07;13.13;;;;;;;4.85;37.72;100669.50;5357211;32;34039;-69
2022/03/07 12:06:04;;;;;;;27.23;14.10;;;;;;;5.92;36.39;100664.59;5391668;32;34142;-73
2022/03/07 12:09:07;;;;;;;25.57;12.67;;;;;;;4.75;39.00;100665.25;5388052;32;34458;-72
2022/03/07 12:12:13;;;;;;;29.60;14.50;;;;;;;3.81;40.65;100677.37;5381381;32;45282;-73
2022/03/07 12:15:16;;;;;;;28.27;14.10;;;;;;;3.77;41.16;100668.72;5385625;32;34453;-72
2022/03/07 12:18:21;;;;;;;24.20;13.23;;;;;;;4.38;39.43;100658.69;5388683;32;34257;-72
2022/03/07 12:21:25;;;;;;;26.08;13.38;;;;;;;4.28;39.66;100661.38;5366200;32;34102;-71
2022/03/07 12:24:28;;;;;;;32.70;14.70;;;;;;;3.03;42.41;100659.62;5389929;32;34076;-72
2022/03/07 12:27:37;;;;;;;31.67;15.53;;;;;;;4.02;40.94;100656.41;5390693;32;34626;-66
2022/03/07 12:30:40;;;;;;;28.40;13.30;;;;;;;4.60;39.09;100648.06;5388676;32;35073;-74
2022/03/07 12:33:48;;;;;;;29.52;15.07;;;;;;;4.11;39.66;100652.00;5373319;32;46117;-72
2022/03/07 12:37:11;;;;;;;40.20;16.70;;;;;;;3.41;42.10;100661.16;5371477;32;35701;-70
2022/03/07 12:40:16;;;;;;;32.33;14.97;;;;;;;2.78;43.18;100661.44;5373963;32;44667;-65
2022/03/07 12:43:22;;;;;;;34.93;14.83;;;;;;;3.62;41.85;100666.25;5380721;32;35279;-69
2022/03/07 12:46:25;;;;;;;38.13;15.97;;;;;;;4.13;40.17;100648.53;5385913;32;32288;-66
2022/03/07 12:49:27;;;;;;;29.77;13.95;;;;;;;3.70;40.99;100663.59;5395598;32;35979;-70
2022/03/07 12:52:34;;;;;;;33.83;15.77;;;;;;;4.05;40.25;100666.78;5387850;32;34056;-72
2022/03/07 12:55:37;;;;;;;32.50;15.33;;;;;;;3.84;40.74;100666.09;5385216;32;35775;-74
2022/03/07 12:58:51;;;;;;;34.67;16.50;;;;;;;2.74;43.03;100667.50;5384405;32;35807;-73
2022/03/07 13:01:54;;;;;;;32.78;16.40;;;;;;;3.14;42.05;100667.34;5372354;32;34060;-70
2022/03/07 13:04:57;;;;;;;40.05;16.05;;;;;;;3.76;40.91;100664.41;5376207;32;35450;-69
2022/03/07 13:08:01;;;;;;;36.27;15.80;;;;;;;3.96;40.46;100656.47;5382541;32;35293;-68
2022/03/07 13:11:04;;;;;;;31.27;14.90;;;;;;;3.50;40.94;100655.91;5389801;32;34119;-69
2022/03/07 13:14:06;;;;;;;33.63;15.97;;;;;;;3.22;41.66;100662.97;5391984;32;36173;-73
2022/03/07 13:17:10;;;;;;;32.10;14.67;;;;;;;3.54;40.71;100668.00;5384226;32;34315;-64
2022/03/07 13:20:25;;;;;;;32.47;16.77;;;;;;;4.22;39.49;100653.63;5393461;32;44260;-69
2022/03/07 13:23:28;;;;;;;33.83;15.57;;;;;;;4.16;39.77;100658.03;5386453;32;33738;-67
2022/03/07 13:26:31;;;;;;;32.60;15.53;;;;;;;3.76;40.66;100661.81;5391366;32;34349;-71
2022/03/07 13:29:34;;;;;;;29.07;15.37;;;;;;;4.42;39.45;100660.41;5383656;32;34175;-79
2022/03/07 13:32:40;;;;;;;34.10;14.97;;;;;;;4.20;39.39;100667.53;5388192;32;34070;-80
2022/03/07 13:35:43;;;;;;;28.30;14.13;;;;;;;4.01;40.29;100662.50;5387753;32;45874;-68
2022/03/07 13:38:45;;;;;;;38.87;14.40;;;;;;;3.61;41.14;100674.91;5391789;32;33999;-65
2022/03/07 13:42:07;;;;;;;34.10;16.03;;;;;;;3.18;42.15;100675.13;5378399;32;34673;-69
2022/03/07 13:45:20;;;;;;;30.47;14.07;;;;;;;3.14;42.55;100683.78;5389038;32;34080;-69
2022/03/07 13:48:24;;;;;;;33.47;13.93;;;;;;;2.98;42.20;100677.81;5389921;32;34588;-66
2022/03/07 13:51:30;;;;;;;31.17;13.90;;;;;;;2.79;42.83;100673.53;5380655;32;34256;-66
2022/03/07 13:54:39;;;;;;;30.53;14.53;;;;;;;3.07;42.22;100665.66;5387993;32;33879;-65
2022/03/07 13:58:00;;;;;;;29.80;14.07;;;;;;;3.13;41.73;100684.66;5397286;32;33767;-65
2022/03/07 14:01:08;;;;;;;30.92;14.05;;;;;;;3.80;40.53;100671.31;5384312;32;34060;-64
2022/03/07 14:04:30;;;;;;;25.73;13.90;;;;;;;3.10;41.60;100682.09;5376962;32;35981;-66